createdAt,value
2018-07-08T00:00:39.183Z,16.38
2018-07-08T00:01:39.177Z,16.39
2018-07-08T00:02:39.179Z,16.38
2018-07-08T00:03:39.182Z,16.42
2018-07-08T00:04:39.154Z,16.35
2018-07-08T00:05:38.899Z,16.38
2018-07-08T00:06:39.345Z,16.46
2018-07-08T00:07:39.150Z,16.42
2018-07-08T00:08:39.148Z,16.48
2018-07-08T00:09:39.130Z,16.46
2018-07-08T00:10:39.128Z,16.5
2018-07-08T00:11:38.878Z,16.6
2018-07-08T00:12:39.117Z,16.58
2018-07-08T00:13:39.114Z,16.67
2018-07-08T00:14:39.113Z,16.68
2018-07-08T00:15:39.112Z,16.73
2018-07-08T00:16:39.118Z,16.73
2018-07-08T00:17:39.096Z,16.76
2018-07-08T00:18:39.100Z,16.73
2018-07-08T00:19:38.836Z,16.85
2018-07-08T00:20:39.087Z,16.82
2018-07-08T00:21:39.079Z,16.85
2018-07-08T00:22:38.849Z,16.91
2018-07-08T00:23:39.070Z,16.93
2018-07-08T00:24:39.069Z,16.93
2018-07-08T00:25:39.069Z,16.96
2018-07-08T00:26:39.061Z,17
2018-07-08T00:27:38.806Z,17
2018-07-08T00:28:39.060Z,17.06
2018-07-08T00:29:39.044Z,17.06
2018-07-08T00:30:39.040Z,17.07
2018-07-08T00:31:38.789Z,17.14
2018-07-08T00:32:39.034Z,17.21
2018-07-08T00:33:39.029Z,17.19
2018-07-08T00:34:38.772Z,17.21
2018-07-08T00:35:38.768Z,17.16
2018-07-08T00:36:39.018Z,17.22
2018-07-08T00:37:39.010Z,17.18
2018-07-08T00:38:39.017Z,17.07
2018-07-08T00:39:39.008Z,17.11
2018-07-08T00:40:38.996Z,17.18
2018-07-08T00:41:39.024Z,17.15
2018-07-08T00:42:38.736Z,17.11
2018-07-08T00:43:38.986Z,17.16
2018-07-08T00:44:38.980Z,17.18
2018-07-08T00:45:38.727Z,17.21
2018-07-08T00:46:38.973Z,17.12
2018-07-08T00:47:38.982Z,17.11
2018-07-08T00:48:38.983Z,17.08
2018-07-08T00:49:38.964Z,17.22
2018-07-08T00:50:38.961Z,17.16
2018-07-08T00:51:38.959Z,17.11
2018-07-08T00:52:38.698Z,17.18
2018-07-08T00:53:38.955Z,17.12
2018-07-08T00:54:38.942Z,17.06
2018-07-08T00:55:38.682Z,17.08
2018-07-08T00:56:38.932Z,17.03
2018-07-08T00:57:39.179Z,16.98
2018-07-08T00:58:38.976Z,16.96
2018-07-08T00:59:38.679Z,17
2018-07-08T01:00:38.988Z,16.96
2018-07-08T01:01:39.070Z,16.91
2018-07-08T01:02:38.912Z,16.88
2018-07-08T01:03:38.902Z,16.89
2018-07-08T01:04:38.646Z,16.91
2018-07-08T01:05:38.917Z,16.85
2018-07-08T01:06:38.891Z,16.91
2018-07-08T01:07:38.887Z,16.81
2018-07-08T01:08:39.003Z,16.82
2018-07-08T01:09:38.878Z,16.83
2018-07-08T01:10:38.896Z,16.86
2018-07-08T01:11:38.618Z,16.81
2018-07-08T01:12:38.872Z,16.78
2018-07-08T01:13:38.879Z,16.71
2018-07-08T01:14:38.875Z,16.83
2018-07-08T01:15:38.854Z,16.85
2018-07-08T01:16:38.846Z,16.78
2018-07-08T01:17:38.845Z,16.76
2018-07-08T01:18:38.842Z,16.73
2018-07-08T01:19:38.582Z,16.79
2018-07-08T01:20:38.832Z,16.73
2018-07-08T01:21:38.826Z,16.66
2018-07-08T01:22:38.822Z,16.63
2018-07-08T01:23:38.819Z,16.61
2018-07-08T01:24:38.810Z,16.57
2018-07-08T01:25:38.816Z,16.56
2018-07-08T01:26:38.806Z,16.57
2018-07-08T01:27:38.549Z,16.52
2018-07-08T01:28:39.044Z,16.48
2018-07-08T01:29:38.788Z,16.43
2018-07-08T01:30:38.788Z,16.42
2018-07-08T01:31:38.777Z,16.46
2018-07-08T01:32:38.531Z,16.42
2018-07-08T01:33:38.268Z,16.42
2018-07-08T01:34:38.769Z,16.35
2018-07-08T01:35:38.762Z,16.42
2018-07-08T01:36:38.761Z,16.35
2018-07-08T01:37:38.502Z,16.45
2018-07-08T01:38:38.500Z,16.39
2018-07-08T01:39:38.744Z,16.42
2018-07-08T01:40:38.743Z,16.41
2018-07-08T01:41:38.744Z,16.46
2018-07-08T01:42:38.733Z,16.41
2018-07-08T01:43:38.728Z,16.49
2018-07-08T01:44:38.484Z,16.45
2018-07-08T01:45:38.723Z,16.41
2018-07-08T01:46:38.729Z,16.46
2018-07-08T01:47:38.456Z,16.43
2018-07-08T01:48:38.704Z,16.45
2018-07-08T01:49:38.703Z,16.39
2018-07-08T01:50:38.698Z,16.39
2018-07-08T01:51:38.691Z,16.42
2018-07-08T01:52:38.690Z,16.42
2018-07-08T01:53:38.690Z,16.34
2018-07-08T01:54:38.688Z,16.34
2018-07-08T01:55:38.677Z,16.33
2018-07-08T01:56:38.422Z,16.33
2018-07-08T01:57:38.160Z,16.31
2018-07-08T01:58:38.418Z,16.3
2018-07-08T01:59:38.912Z,16.39
2018-07-08T02:00:38.648Z,16.33
2018-07-08T02:01:38.648Z,16.3
2018-07-08T02:02:38.641Z,16.3
2018-07-08T02:03:38.640Z,16.33
2018-07-08T02:04:38.632Z,16.31
2018-07-08T02:05:38.626Z,16.31
2018-07-08T02:06:38.625Z,16.21
2018-07-08T02:07:38.368Z,16.25
2018-07-08T02:08:38.635Z,16.2
2018-07-08T02:09:38.611Z,16.25
2018-07-08T02:10:38.611Z,16.23
2018-07-08T02:11:38.605Z,16.23
2018-07-08T02:12:38.596Z,16.12
2018-07-08T02:13:38.593Z,16.2
2018-07-08T02:14:38.584Z,16.2
2018-07-08T02:15:38.579Z,16.17
2018-07-08T02:16:38.333Z,16.15
2018-07-08T02:17:38.572Z,16.15
2018-07-08T02:18:38.568Z,16.09
2018-07-08T02:19:38.561Z,16.04
2018-07-08T02:20:38.561Z,16.01
2018-07-08T02:21:38.554Z,16.01
2018-07-08T02:22:38.951Z,16.01
2018-07-08T02:23:38.309Z,16.01
2018-07-08T02:24:38.285Z,16.05
2018-07-08T02:25:38.533Z,15.92
2018-07-08T02:26:38.277Z,16.02
2018-07-08T02:27:38.525Z,15.97
2018-07-08T02:28:38.519Z,15.97
2018-07-08T02:29:38.267Z,16
2018-07-08T02:30:38.516Z,15.93
2018-07-08T02:31:38.255Z,15.97
2018-07-08T02:32:38.506Z,16.01
2018-07-08T02:33:38.511Z,15.94
2018-07-08T02:34:38.249Z,15.93
2018-07-08T02:35:37.991Z,15.9
2018-07-08T02:36:38.482Z,15.92
2018-07-08T02:37:38.481Z,15.87
2018-07-08T02:38:38.476Z,15.94
2018-07-08T02:39:38.478Z,15.87
2018-07-08T02:40:38.470Z,15.84
2018-07-08T02:41:38.461Z,15.86
2018-07-08T02:42:38.460Z,15.87
2018-07-08T02:43:38.456Z,15.87
2018-07-08T02:44:38.460Z,15.89
2018-07-08T02:45:38.451Z,15.96
2018-07-08T02:46:38.448Z,15.94
2018-07-08T02:47:38.197Z,15.96
2018-07-08T02:48:38.178Z,16.02
2018-07-08T02:49:38.426Z,16.05
2018-07-08T02:50:38.167Z,16.01
2018-07-08T02:51:38.413Z,16
2018-07-08T02:52:38.423Z,16.04
2018-07-08T02:53:38.410Z,16.05
2018-07-08T02:54:37.891Z,16.11
2018-07-08T02:55:38.389Z,16.07
2018-07-08T02:56:38.440Z,16.15
2018-07-08T02:57:38.395Z,16.12
2018-07-08T02:58:38.376Z,16.2
2018-07-08T02:59:38.374Z,16.25
2018-07-08T03:00:38.386Z,16.25
2018-07-08T03:01:38.112Z,16.25
2018-07-08T03:02:38.358Z,16.33
2018-07-08T03:03:38.349Z,16.28
2018-07-08T03:04:38.345Z,16.33
2018-07-08T03:05:38.096Z,16.38
2018-07-08T03:06:38.336Z,16.41
2018-07-08T03:07:38.330Z,16.43
2018-07-08T03:08:38.336Z,16.46
2018-07-08T03:09:38.327Z,16.46
2018-07-08T03:10:38.069Z,16.5
2018-07-08T03:11:38.317Z,16.48
2018-07-08T03:12:38.309Z,16.52
2018-07-08T03:13:38.304Z,16.52
2018-07-08T03:14:38.303Z,16.52
2018-07-08T03:15:38.301Z,16.53
2018-07-08T03:16:38.299Z,16.56
2018-07-08T03:17:38.294Z,16.52
2018-07-08T03:18:38.287Z,16.58
2018-07-08T03:19:38.277Z,16.5
2018-07-08T03:20:38.281Z,16.49
2018-07-08T03:21:38.267Z,16.52
2018-07-08T03:22:38.266Z,16.48
2018-07-08T03:23:38.259Z,16.46
2018-07-08T03:24:38.255Z,16.41
2018-07-08T03:25:38.249Z,16.34
2018-07-08T03:26:38.245Z,16.31
2018-07-08T03:27:38.253Z,16.39
2018-07-08T03:28:38.239Z,16.27
2018-07-08T03:29:37.978Z,16.31
2018-07-08T03:30:38.228Z,16.25
2018-07-08T03:31:38.224Z,16.28
2018-07-08T03:32:38.226Z,16.3
2018-07-08T03:33:37.709Z,16.27
2018-07-08T03:34:38.206Z,16.21
2018-07-08T03:35:38.204Z,16.34
2018-07-08T03:36:37.945Z,16.23
2018-07-08T03:37:37.949Z,16.24
2018-07-08T03:38:38.189Z,16.21
2018-07-08T03:39:37.932Z,16.27
2018-07-08T03:40:38.182Z,16.34
2018-07-08T03:41:38.177Z,16.33
2018-07-08T03:42:38.212Z,16.3
2018-07-08T03:43:37.915Z,16.46
2018-07-08T03:44:37.909Z,16.6
2018-07-08T03:45:38.162Z,16.57
2018-07-08T03:46:38.154Z,16.66
2018-07-08T03:47:38.154Z,16.79
2018-07-08T03:48:38.145Z,16.91
2018-07-08T03:49:37.639Z,17.01
2018-07-08T03:50:38.144Z,17.16
2018-07-08T03:51:37.625Z,17.3
2018-07-08T03:52:37.872Z,17.41
2018-07-08T03:53:38.125Z,17.63
2018-07-08T03:54:38.115Z,17.75
2018-07-08T03:55:38.114Z,17.9
2018-07-08T03:56:37.861Z,18.12
2018-07-08T03:57:38.112Z,18.17
2018-07-08T03:58:38.100Z,18.41
2018-07-08T03:59:38.098Z,18.54
2018-07-08T04:00:38.099Z,18.69
2018-07-08T04:01:37.839Z,18.9
2018-07-08T04:02:38.085Z,19.1
2018-07-08T04:03:38.083Z,19.32
2018-07-08T04:04:37.828Z,19.5
2018-07-08T04:05:38.079Z,19.71
2018-07-08T04:06:38.074Z,19.84
2018-07-08T04:07:38.072Z,20.1
2018-07-08T04:08:38.122Z,20.2
2018-07-08T04:09:38.084Z,20.39
2018-07-08T04:10:38.063Z,20.57
2018-07-08T04:11:38.068Z,20.61
2018-07-08T04:12:38.060Z,20.7
2018-07-08T04:13:38.058Z,20.82
2018-07-08T04:14:38.063Z,20.84
2018-07-08T04:15:37.816Z,20.84
2018-07-08T04:16:38.054Z,20.91
2018-07-08T04:17:38.054Z,20.98
2018-07-08T04:18:38.052Z,21.06
2018-07-08T04:19:37.798Z,21.16
2018-07-08T04:20:38.043Z,21.35
2018-07-08T04:21:38.046Z,21.49
2018-07-08T04:22:38.048Z,21.53
2018-07-08T04:23:38.041Z,21.47
2018-07-08T04:24:38.043Z,21.64
2018-07-08T04:25:37.795Z,21.67
2018-07-08T04:26:38.038Z,21.59
2018-07-08T04:27:38.035Z,21.59
2018-07-08T04:28:38.082Z,21.64
2018-07-08T04:29:38.034Z,21.62
2018-07-08T04:30:38.041Z,21.65
2018-07-08T04:31:38.033Z,21.65
2018-07-08T04:32:38.030Z,21.61
2018-07-08T04:33:38.042Z,21.61
2018-07-08T04:34:37.780Z,21.59
2018-07-08T04:35:38.283Z,21.52
2018-07-08T04:36:38.030Z,21.58
2018-07-08T04:37:38.026Z,21.59
2018-07-08T04:38:38.023Z,21.58
2018-07-08T04:39:38.026Z,21.46
2018-07-08T04:40:38.022Z,21.58
2018-07-08T04:41:38.020Z,21.54
2018-07-08T04:42:38.019Z,21.61
2018-07-08T04:43:38.024Z,21.46
2018-07-08T04:44:38.015Z,21.42
2018-07-08T04:45:38.015Z,21.35
2018-07-08T04:46:38.019Z,21.31
2018-07-08T04:47:37.770Z,21.32
2018-07-08T04:48:38.012Z,21.4
2018-07-08T04:49:38.010Z,21.4
2018-07-08T04:50:38.010Z,21.24
2018-07-08T04:51:37.755Z,21.28
2018-07-08T04:52:37.754Z,21.27
2018-07-08T04:53:37.752Z,21.28
2018-07-08T04:54:38.001Z,21.34
2018-07-08T04:55:38.005Z,21.34
2018-07-08T04:56:37.997Z,21.37
2018-07-08T04:57:37.998Z,21.34
2018-07-08T04:58:37.999Z,21.58
2018-07-08T04:59:37.746Z,21.72
2018-07-08T05:00:37.753Z,21.79
2018-07-08T05:01:37.995Z,21.79
2018-07-08T05:02:37.992Z,21.96
2018-07-08T05:03:37.741Z,22
2018-07-08T05:04:38.006Z,22.2
2018-07-08T05:05:37.992Z,22.35
2018-07-08T05:06:38.579Z,22.36
2018-07-08T05:07:37.993Z,22.54
2018-07-08T05:08:37.988Z,22.7
2018-07-08T05:09:37.991Z,22.76
2018-07-08T05:10:37.992Z,22.83
2018-07-08T05:11:37.986Z,23
2018-07-08T05:12:37.988Z,23.19
2018-07-08T05:13:37.986Z,23.27
2018-07-08T05:14:37.985Z,23.4
2018-07-08T05:15:37.737Z,23.51
2018-07-08T05:16:37.991Z,23.87
2018-07-08T05:17:37.740Z,24.08
2018-07-08T05:18:37.736Z,24.21
2018-07-08T05:19:37.989Z,24.49
2018-07-08T05:20:37.745Z,24.84
2018-07-08T05:21:37.994Z,25.17
2018-07-08T05:22:37.754Z,25.67
2018-07-08T05:23:37.746Z,26.09
2018-07-08T05:24:38.005Z,26.47
2018-07-08T05:25:38.007Z,26.77
2018-07-08T05:26:38.015Z,26.92
2018-07-08T05:27:38.012Z,27
2018-07-08T05:28:37.764Z,27.04
2018-07-08T05:29:37.765Z,26.99
2018-07-08T05:30:38.037Z,26.75
2018-07-08T05:31:38.026Z,26.69
2018-07-08T05:32:37.781Z,26.51
2018-07-08T05:33:38.040Z,26.48
2018-07-08T05:34:38.044Z,26.32
2018-07-08T05:35:38.113Z,26.21
2018-07-08T05:36:37.795Z,26.28
2018-07-08T05:37:38.054Z,26.23
2018-07-08T05:38:38.055Z,26.23
2018-07-08T05:39:38.057Z,26.25
2018-07-08T05:40:38.061Z,26.21
2018-07-08T05:41:37.818Z,26.2
2018-07-08T05:42:38.070Z,26.2
2018-07-08T05:43:38.119Z,26.1
2018-07-08T05:44:38.079Z,26.07
2018-07-08T05:45:38.085Z,26.05
2018-07-08T05:46:37.836Z,26.01
2018-07-08T05:47:37.838Z,25.95
2018-07-08T05:48:37.840Z,25.76
2018-07-08T05:49:38.100Z,25.54
2018-07-08T05:50:38.063Z,25.39
2018-07-08T05:51:37.852Z,25.32
2018-07-08T05:52:37.855Z,25.42
2018-07-08T05:53:38.116Z,25.61
2018-07-08T05:54:38.116Z,25.69
2018-07-08T05:55:37.882Z,25.83
2018-07-08T05:56:37.619Z,26.12
2018-07-08T05:57:38.129Z,26.52
2018-07-08T05:58:38.130Z,26.85
2018-07-08T05:59:38.143Z,27.07
2018-07-08T06:00:38.145Z,27.24
2018-07-08T06:01:38.144Z,27.41
2018-07-08T06:02:38.145Z,27.47
2018-07-08T06:03:38.154Z,27.66
2018-07-08T06:04:38.085Z,27.81
2018-07-08T06:05:38.163Z,27.77
2018-07-08T06:06:38.165Z,27.81
2018-07-08T06:07:38.170Z,27.78
2018-07-08T06:08:38.176Z,27.81
2018-07-08T06:09:38.181Z,27.75
2018-07-08T06:10:38.195Z,27.72
2018-07-08T06:11:38.191Z,27.75
2018-07-08T06:12:38.201Z,27.6
2018-07-08T06:13:38.199Z,27.65
2018-07-08T06:14:38.207Z,27.43
2018-07-08T06:15:37.961Z,27.34
2018-07-08T06:16:38.216Z,27.21
2018-07-08T06:17:38.219Z,27.09
2018-07-08T06:18:38.221Z,27
2018-07-08T06:19:37.975Z,26.94
2018-07-08T06:20:38.233Z,26.84
2018-07-08T06:21:38.283Z,26.58
2018-07-08T06:22:37.747Z,26.32
2018-07-08T06:23:38.245Z,26.07
2018-07-08T06:24:38.249Z,25.88
2018-07-08T06:25:38.250Z,25.69
2018-07-08T06:26:38.005Z,25.67
2018-07-08T06:27:38.004Z,25.42
2018-07-08T06:28:38.264Z,25.32
2018-07-08T06:29:38.011Z,25.18
2018-07-08T06:30:38.330Z,25.14
2018-07-08T06:31:38.331Z,24.99
2018-07-08T06:32:38.275Z,24.91
2018-07-08T06:33:38.278Z,24.84
2018-07-08T06:34:38.023Z,24.8
2018-07-08T06:35:38.025Z,24.85
2018-07-08T06:36:38.029Z,24.85
2018-07-08T06:37:38.031Z,24.83
2018-07-08T06:38:38.037Z,24.83
2018-07-08T06:39:38.284Z,24.71
2018-07-08T06:40:38.293Z,24.73
2018-07-08T06:41:38.297Z,24.76
2018-07-08T06:42:38.292Z,24.69
2018-07-08T06:43:38.291Z,24.47
2018-07-08T06:44:38.046Z,24.47
2018-07-08T06:45:38.164Z,24.4
2018-07-08T06:46:38.299Z,24.46
2018-07-08T06:47:38.300Z,24.58
2018-07-08T06:48:38.298Z,24.47
2018-07-08T06:49:38.051Z,24.64
2018-07-08T06:50:38.307Z,24.71
2018-07-08T06:51:38.304Z,24.84
2018-07-08T06:52:38.329Z,24.88
2018-07-08T06:53:38.305Z,24.83
2018-07-08T06:54:38.306Z,24.85
2018-07-08T06:55:38.309Z,24.91
2018-07-08T06:56:38.315Z,24.85
2018-07-08T06:57:38.311Z,24.95
2018-07-08T06:58:38.321Z,25
2018-07-08T06:59:38.066Z,25.03
2018-07-08T07:00:38.320Z,25.14
2018-07-08T07:01:38.317Z,25.15
2018-07-08T07:02:38.067Z,25.33
2018-07-08T07:03:38.325Z,25.42
2018-07-08T07:04:38.074Z,25.6
2018-07-08T07:05:38.073Z,25.69
2018-07-08T07:06:38.356Z,25.97
2018-07-08T07:07:38.078Z,26.1
2018-07-08T07:08:38.337Z,26.28
2018-07-08T07:09:38.338Z,26.47
2018-07-08T07:10:38.094Z,26.76
2018-07-08T07:11:38.595Z,26.97
2018-07-08T07:12:38.343Z,27.12
2018-07-08T07:13:38.346Z,27.22
2018-07-08T07:14:38.361Z,27.31
2018-07-08T07:15:38.102Z,27.28
2018-07-08T07:16:38.366Z,27.32
2018-07-08T07:17:38.566Z,27.24
2018-07-08T07:18:38.120Z,27.18
2018-07-08T07:19:38.116Z,27.14
2018-07-08T07:20:38.375Z,27.1
2018-07-08T07:21:38.377Z,27.28
2018-07-08T07:22:38.428Z,27.34
2018-07-08T07:23:38.390Z,27.5
2018-07-08T07:24:38.399Z,27.72
2018-07-08T07:25:38.150Z,27.96
2018-07-08T07:26:38.151Z,28.06
2018-07-08T07:27:38.408Z,28.22
2018-07-08T07:28:38.616Z,28.39
2018-07-08T07:29:38.425Z,28.43
2018-07-08T07:30:38.433Z,28.62
2018-07-08T07:31:38.439Z,28.74
2018-07-08T07:32:38.447Z,28.92
2018-07-08T07:33:38.451Z,29.15
2018-07-08T07:34:38.455Z,29.3
2018-07-08T07:35:38.458Z,29.37
2018-07-08T07:36:38.470Z,29.45
2018-07-08T07:37:38.477Z,29.51
2018-07-08T07:38:38.242Z,29.63
2018-07-08T07:39:38.242Z,29.65
2018-07-08T07:40:38.240Z,29.71
2018-07-08T07:41:38.250Z,29.79
2018-07-08T07:42:38.771Z,29.98
2018-07-08T07:43:38.523Z,29.92
2018-07-08T07:44:38.524Z,29.89
2018-07-08T07:45:38.672Z,29.92
2018-07-08T07:46:38.543Z,30.08
2018-07-08T07:47:38.592Z,30.07
2018-07-08T07:48:38.553Z,30.24
2018-07-08T07:49:38.559Z,30.54
2018-07-08T07:50:38.319Z,30.92
2018-07-08T07:51:38.584Z,31.21
2018-07-08T07:52:38.597Z,31.46
2018-07-08T07:53:38.616Z,31.85
2018-07-08T07:54:38.604Z,32.03
2018-07-08T07:55:38.613Z,32.13
2018-07-08T07:56:38.619Z,32.22
2018-07-08T07:57:38.383Z,32.3
2018-07-08T07:58:38.387Z,32.35
2018-07-08T07:59:38.649Z,32.56
2018-07-08T08:00:38.410Z,32.62
2018-07-08T08:01:38.666Z,32.75
2018-07-08T08:02:38.692Z,32.82
2018-07-08T08:03:38.689Z,32.77
2018-07-08T08:04:38.700Z,32.88
2018-07-08T08:05:38.707Z,33.06
2018-07-08T08:06:38.718Z,33.39
2018-07-08T08:07:38.737Z,33.63
2018-07-08T08:08:38.239Z,33.87
2018-07-08T08:09:38.745Z,33.98
2018-07-08T08:10:38.815Z,34.06
2018-07-08T08:11:38.277Z,34.1
2018-07-08T08:12:38.536Z,34.09
2018-07-08T08:13:38.285Z,34.19
2018-07-08T08:14:38.808Z,34.24
2018-07-08T08:15:38.842Z,34.42
2018-07-08T08:16:38.834Z,34.47
2018-07-08T08:17:38.865Z,34.62
2018-07-08T08:18:38.844Z,34.49
2018-07-08T08:19:38.609Z,34.37
2018-07-08T08:20:38.866Z,34.13
2018-07-08T08:21:38.630Z,34.03
2018-07-08T08:22:38.916Z,33.86
2018-07-08T08:23:38.918Z,33.65
2018-07-08T08:24:38.917Z,33.44
2018-07-08T08:25:38.675Z,33.19
2018-07-08T08:26:38.453Z,32.92
2018-07-08T08:27:38.992Z,32.65
2018-07-08T08:28:38.962Z,32.59
2018-07-08T08:29:38.967Z,32.51
2018-07-08T08:30:38.974Z,32.13
2018-07-08T08:31:39.028Z,31.8
2018-07-08T08:32:38.787Z,31.47
2018-07-08T08:33:39.008Z,31.48
2018-07-08T08:34:39.015Z,31.39
2018-07-08T08:35:39.021Z,31.34
2018-07-08T08:36:39.037Z,31.28
2018-07-08T08:37:39.060Z,31.25
2018-07-08T08:38:39.058Z,31.2
2018-07-08T08:39:39.054Z,31.13
2018-07-08T08:40:39.065Z,31.19
2018-07-08T08:41:39.079Z,31.19
2018-07-08T08:42:39.095Z,31.2
2018-07-08T08:43:39.096Z,31.2
2018-07-08T08:44:39.102Z,31.29
2018-07-08T08:45:39.115Z,31.38
2018-07-08T08:46:39.124Z,31.53
2018-07-08T08:47:38.869Z,31.69
2018-07-08T08:48:39.130Z,31.8
2018-07-08T08:49:39.144Z,31.95
2018-07-08T08:50:39.151Z,31.92
2018-07-08T08:51:38.903Z,31.8
2018-07-08T08:52:39.296Z,31.48
2018-07-08T08:53:39.188Z,31.38
2018-07-08T08:54:38.928Z,31.34
2018-07-08T08:55:39.190Z,31.31
2018-07-08T08:56:38.953Z,31.16
2018-07-08T08:57:39.221Z,31.16
2018-07-08T08:58:39.226Z,31.35
2018-07-08T08:59:39.231Z,31.38
2018-07-08T09:00:39.232Z,31.48
2018-07-08T09:01:39.247Z,31.46
2018-07-08T09:02:39.253Z,31.66
2018-07-08T09:03:39.368Z,31.72
2018-07-08T09:04:39.280Z,31.66
2018-07-08T09:05:39.284Z,31.66
2018-07-08T09:06:39.038Z,31.51
2018-07-08T09:07:39.301Z,31.46
2018-07-08T09:08:39.310Z,31.25
2018-07-08T09:09:39.314Z,30.99
2018-07-08T09:10:39.117Z,30.53
2018-07-08T09:11:39.334Z,30.08
2018-07-08T09:12:39.117Z,29.74
2018-07-08T09:13:39.366Z,29.45
2018-07-08T09:14:39.373Z,29.21
2018-07-08T09:15:39.368Z,29
2018-07-08T09:16:39.372Z,28.74
2018-07-08T09:17:39.391Z,28.59
2018-07-08T09:18:39.391Z,28.39
2018-07-08T09:19:39.392Z,28.25
2018-07-08T09:20:39.406Z,28.14
2018-07-08T09:21:39.421Z,28.03
2018-07-08T09:22:39.420Z,27.87
2018-07-08T09:23:39.462Z,27.78
2018-07-08T09:24:39.454Z,27.74
2018-07-08T09:25:39.436Z,27.7
2018-07-08T09:26:39.455Z,27.69
2018-07-08T09:27:39.193Z,27.62
2018-07-08T09:28:39.450Z,27.62
2018-07-08T09:29:39.459Z,27.46
2018-07-08T09:30:39.462Z,27.46
2018-07-08T09:31:39.466Z,27.46
2018-07-08T09:32:39.481Z,27.43
2018-07-08T09:33:39.475Z,27.36
2018-07-08T09:34:39.482Z,27.27
2018-07-08T09:35:39.483Z,27.22
2018-07-08T09:36:39.235Z,27.13
2018-07-08T09:37:39.503Z,27
2018-07-08T09:38:39.613Z,26.92
2018-07-08T09:39:39.249Z,26.85
2018-07-08T09:40:39.256Z,26.67
2018-07-08T09:41:39.560Z,26.65
2018-07-08T09:42:39.526Z,26.69
2018-07-08T09:43:39.265Z,26.87
2018-07-08T09:44:39.531Z,26.82
2018-07-08T09:45:39.543Z,26.73
2018-07-08T09:46:39.535Z,26.63
2018-07-08T09:47:39.564Z,26.4
2018-07-08T09:48:39.539Z,26.33
2018-07-08T09:49:39.289Z,26.23
2018-07-08T09:50:39.293Z,26.1
2018-07-08T09:51:39.549Z,26.23
2018-07-08T09:52:39.838Z,26.26
2018-07-08T09:53:39.302Z,26.36
2018-07-08T09:54:39.310Z,26.57
2018-07-08T09:55:39.573Z,26.82
2018-07-08T09:56:39.582Z,27.06
2018-07-08T09:57:39.576Z,27.31
2018-07-08T09:58:39.579Z,27.44
2018-07-08T09:59:39.581Z,27.69
2018-07-08T10:00:39.581Z,27.7
2018-07-08T10:01:39.590Z,27.62
2018-07-08T10:02:39.597Z,27.6
2018-07-08T10:03:39.338Z,27.74
2018-07-08T10:04:39.984Z,27.74
2018-07-08T10:05:39.602Z,27.84
2018-07-08T10:06:39.352Z,27.9
2018-07-08T10:07:39.617Z,28.11
2018-07-08T10:08:39.875Z,28.22
2018-07-08T10:09:39.378Z,28.46
2018-07-08T10:10:39.626Z,28.54
2018-07-08T10:11:39.634Z,28.62
2018-07-08T10:12:39.640Z,28.71
2018-07-08T10:13:39.775Z,28.8
2018-07-08T10:14:39.649Z,28.98
2018-07-08T10:15:39.653Z,28.93
2018-07-08T10:16:39.661Z,28.93
2018-07-08T10:17:40.086Z,28.86
2018-07-08T10:18:39.774Z,29
2018-07-08T10:19:40.129Z,28.92
2018-07-08T10:20:39.420Z,28.93
2018-07-08T10:21:39.634Z,28.9
2018-07-08T10:22:39.686Z,28.85
2018-07-08T10:23:39.695Z,28.93
2018-07-08T10:24:39.741Z,28.92
2018-07-08T10:25:39.695Z,28.81
2018-07-08T10:26:39.701Z,28.74
2018-07-08T10:27:39.706Z,28.66
2018-07-08T10:28:39.720Z,28.67
2018-07-08T10:29:39.722Z,28.61
2018-07-08T10:30:39.742Z,28.55
2018-07-08T10:31:39.479Z,28.48
2018-07-08T10:32:39.735Z,28.39
2018-07-08T10:33:39.737Z,28.4
2018-07-08T10:34:39.743Z,28.36
2018-07-08T10:35:39.750Z,28.09
2018-07-08T10:36:40.064Z,28.07
2018-07-08T10:37:39.756Z,28.07
2018-07-08T10:38:39.770Z,28.03
2018-07-08T10:39:39.765Z,28.06
2018-07-08T10:40:39.774Z,28.18
2018-07-08T10:41:39.543Z,28.37
2018-07-08T10:42:39.794Z,28.36
2018-07-08T10:43:39.789Z,28.44
2018-07-08T10:44:39.795Z,28.37
2018-07-08T10:45:39.810Z,28.36
2018-07-08T10:46:39.798Z,28.34
2018-07-08T10:47:39.801Z,28.51
2018-07-08T10:48:39.813Z,28.52
2018-07-08T10:49:39.811Z,28.67
2018-07-08T10:50:39.816Z,28.64
2018-07-08T10:51:39.824Z,28.8
2018-07-08T10:52:39.868Z,28.92
2018-07-08T10:53:39.839Z,29.09
2018-07-08T10:54:39.867Z,29.34
2018-07-08T10:55:39.845Z,29.43
2018-07-08T10:56:39.858Z,29.42
2018-07-08T10:57:39.861Z,29.57
2018-07-08T10:58:39.856Z,29.53
2018-07-08T10:59:39.862Z,29.43
2018-07-08T11:00:39.866Z,29.19
2018-07-08T11:01:39.902Z,28.86
2018-07-08T11:02:39.878Z,28.52
2018-07-08T11:03:39.905Z,28.49
2018-07-08T11:04:39.889Z,28.48
2018-07-08T11:05:39.901Z,28.49
2018-07-08T11:06:39.907Z,28.48
2018-07-08T11:07:39.669Z,28.56
2018-07-08T11:08:39.658Z,28.74
2018-07-08T11:09:39.926Z,28.93
2018-07-08T11:10:39.931Z,28.95
2018-07-08T11:11:40.152Z,29.18
2018-07-08T11:12:39.940Z,29.34
2018-07-08T11:13:39.943Z,29.45
2018-07-08T11:14:39.952Z,29.57
2018-07-08T11:15:39.954Z,29.61
2018-07-08T11:16:39.701Z,29.55
2018-07-08T11:17:39.975Z,29.49
2018-07-08T11:18:39.458Z,29.42
2018-07-08T11:19:39.972Z,29.55
2018-07-08T11:20:40.264Z,29.58
2018-07-08T11:21:39.997Z,29.61
2018-07-08T11:22:40.004Z,29.43
2018-07-08T11:23:40.007Z,29.63
2018-07-08T11:24:40.004Z,29.68
2018-07-08T11:25:40.018Z,29.83
2018-07-08T11:26:39.815Z,29.97
2018-07-08T11:27:39.515Z,30.07
2018-07-08T11:28:40.335Z,30.19
2018-07-08T11:29:40.035Z,30.32
2018-07-08T11:30:40.048Z,30.46
2018-07-08T11:31:40.040Z,30.47
2018-07-08T11:32:40.059Z,30.64
2018-07-08T11:33:39.825Z,30.79
2018-07-08T11:34:40.058Z,30.73
2018-07-08T11:35:40.068Z,30.65
2018-07-08T11:36:40.082Z,30.61
2018-07-08T11:37:40.097Z,30.75
2018-07-08T11:38:40.100Z,30.91
2018-07-08T11:39:40.091Z,30.95
2018-07-08T11:40:39.863Z,30.73
2018-07-08T11:41:39.871Z,30.49
2018-07-08T11:42:40.135Z,30.07
2018-07-08T11:43:40.148Z,29.83
2018-07-08T11:44:40.124Z,29.58
2018-07-08T11:45:40.133Z,29.42
2018-07-08T11:46:40.142Z,29.27
2018-07-08T11:47:40.162Z,29.28
2018-07-08T11:48:40.170Z,29.27
2018-07-08T11:49:40.174Z,29.36
2018-07-08T11:50:40.171Z,29.6
2018-07-08T11:51:39.917Z,29.64
2018-07-08T11:52:40.176Z,29.71
2018-07-08T11:53:40.197Z,29.68
2018-07-08T11:54:40.186Z,29.67
2018-07-08T11:55:39.945Z,29.6
2018-07-08T11:56:39.698Z,29.3
2018-07-08T11:57:40.222Z,29.02
2018-07-08T11:58:40.216Z,28.9
2018-07-08T11:59:40.226Z,28.67
2018-07-08T12:00:40.231Z,28.58
2018-07-08T12:01:40.243Z,28.4
2018-07-08T12:02:40.233Z,28.43
2018-07-08T12:03:40.259Z,28.46
2018-07-08T12:04:40.241Z,28.64
2018-07-08T12:05:40.257Z,28.83
2018-07-08T12:06:40.258Z,28.98
2018-07-08T12:07:40.014Z,29.18
2018-07-08T12:08:40.286Z,29.15
2018-07-08T12:09:40.274Z,29.08
2018-07-08T12:10:40.287Z,29.14
2018-07-08T12:11:40.027Z,29.14
2018-07-08T12:12:40.304Z,29.14
2018-07-08T12:13:40.300Z,28.98
2018-07-08T12:14:40.673Z,28.74
2018-07-08T12:15:40.315Z,28.56
2018-07-08T12:16:40.321Z,28.39
2018-07-08T12:17:40.315Z,28.37
2018-07-08T12:18:40.323Z,28.4
2018-07-08T12:19:40.108Z,28.46
2018-07-08T12:20:40.331Z,28.43
2018-07-08T12:21:40.337Z,28.54
2018-07-08T12:22:40.114Z,28.56
2018-07-08T12:23:40.099Z,28.52
2018-07-08T12:24:40.357Z,28.46
2018-07-08T12:25:40.366Z,28.48
2018-07-08T12:26:40.372Z,28.39
2018-07-08T12:27:40.547Z,28.31
2018-07-08T12:28:40.374Z,28.19
2018-07-08T12:29:40.135Z,28.21
2018-07-08T12:30:40.146Z,28.11
2018-07-08T12:31:40.404Z,28.06
2018-07-08T12:32:40.394Z,27.78
2018-07-08T12:33:40.142Z,27.59
2018-07-08T12:34:40.395Z,27.43
2018-07-08T12:35:40.418Z,27.24
2018-07-08T12:36:40.266Z,27.29
2018-07-08T12:37:40.409Z,27.29
2018-07-08T12:38:40.164Z,27.28
2018-07-08T12:39:40.166Z,27.31
2018-07-08T12:40:40.429Z,27.28
2018-07-08T12:41:40.194Z,27.24
2018-07-08T12:42:40.182Z,27.06
2018-07-08T12:43:40.434Z,27.03
2018-07-08T12:44:41.043Z,27.03
2018-07-08T12:45:40.196Z,27.03
2018-07-08T12:46:40.207Z,27.03
2018-07-08T12:47:40.228Z,26.91
2018-07-08T12:48:40.454Z,26.85
2018-07-08T12:49:40.466Z,26.95
2018-07-08T12:50:40.501Z,27.04
2018-07-08T12:51:40.225Z,27.31
2018-07-08T12:52:40.469Z,27.55
2018-07-08T12:53:40.471Z,27.75
2018-07-08T12:54:40.479Z,28.04
2018-07-08T12:55:40.488Z,28.09